createdAt,value
2023-03-31T00:00:25.582Z,985.69
2023-03-31T00:01:25.580Z,985.68
2023-03-31T00:02:25.623Z,985.65
2023-03-31T00:03:25.634Z,985.60
2023-03-31T00:04:25.577Z,985.54
2023-03-31T00:05:25.543Z,985.52
2023-03-31T00:06:25.524Z,985.49
2023-03-31T00:07:25.535Z,985.47
2023-03-31T00:08:25.516Z,985.46
2023-03-31T00:09:25.490Z,985.44
2023-03-31T00:10:25.480Z,985.43
2023-03-31T00:11:25.474Z,985.42
2023-03-31T00:12:25.455Z,985.44
2023-03-31T00:13:25.474Z,985.41
2023-03-31T00:14:25.433Z,985.40
2023-03-31T00:15:25.476Z,985.38
2023-03-31T00:16:25.488Z,985.34
2023-03-31T00:17:25.471Z,985.32
2023-03-31T00:18:25.406Z,985.32
2023-03-31T00:19:25.387Z,985.30
2023-03-31T00:20:25.377Z,985.28
2023-03-31T00:21:25.716Z,985.27
2023-03-31T00:22:25.361Z,985.23
2023-03-31T00:23:25.371Z,985.20
2023-03-31T00:24:25.332Z,985.19
2023-03-31T00:25:25.326Z,985.19
2023-03-31T00:26:25.315Z,985.18
2023-03-31T00:27:25.308Z,985.16
2023-03-31T00:28:25.303Z,985.14
2023-03-31T00:29:25.287Z,985.09
2023-03-31T00:30:25.287Z,985.05
2023-03-31T00:31:25.296Z,985.02
2023-03-31T00:32:25.314Z,985.00
2023-03-31T00:33:25.272Z,985.01
2023-03-31T00:34:25.224Z,985.01
2023-03-31T00:35:25.230Z,985.02
2023-03-31T00:36:25.239Z,984.99
2023-03-31T00:37:25.250Z,984.96
2023-03-31T00:38:25.200Z,984.94
2023-03-31T00:39:25.198Z,984.93
2023-03-31T00:40:25.161Z,984.91
2023-03-31T00:41:25.159Z,984.91
2023-03-31T00:42:25.139Z,984.92
2023-03-31T00:43:25.176Z,984.91
2023-03-31T00:44:25.131Z,984.90
2023-03-31T00:45:25.253Z,984.92
2023-03-31T00:46:25.157Z,984.92
2023-03-31T00:47:25.091Z,984.94
2023-03-31T00:48:25.120Z,984.95
2023-03-31T00:49:25.070Z,984.93
2023-03-31T00:50:25.054Z,984.91
2023-03-31T00:51:25.047Z,984.89
2023-03-31T00:52:25.040Z,984.88
2023-03-31T00:53:25.048Z,984.83
2023-03-31T00:54:25.012Z,984.81
2023-03-31T00:55:25.009Z,984.79
2023-03-31T00:56:24.994Z,984.77
2023-03-31T00:57:25.074Z,984.76
2023-03-31T00:58:24.986Z,984.73
2023-03-31T00:59:24.968Z,984.71
2023-03-31T01:00:24.946Z,984.67
2023-03-31T01:01:25.091Z,984.67
2023-03-31T01:02:24.956Z,984.66
2023-03-31T01:03:25.005Z,984.66
2023-03-31T01:04:24.913Z,984.65
2023-03-31T01:05:24.897Z,984.61
2023-03-31T01:06:24.894Z,984.58
2023-03-31T01:07:24.880Z,984.54
2023-03-31T01:08:24.898Z,984.55
2023-03-31T01:09:24.856Z,984.52
2023-03-31T01:10:24.878Z,984.46
2023-03-31T01:11:24.835Z,984.41
2023-03-31T01:12:24.837Z,984.37
2023-03-31T01:13:24.837Z,984.33
2023-03-31T01:14:24.833Z,984.29
2023-03-31T01:15:24.801Z,984.29
2023-03-31T01:16:24.820Z,984.34
2023-03-31T01:17:24.965Z,984.35
2023-03-31T01:18:24.944Z,984.34
2023-03-31T01:19:24.769Z,984.31
2023-03-31T01:20:24.750Z,984.30
2023-03-31T01:21:24.743Z,984.29
2023-03-31T01:22:24.752Z,984.25
2023-03-31T01:23:24.745Z,984.25
2023-03-31T01:24:24.714Z,984.25
2023-03-31T01:25:24.725Z,984.25
2023-03-31T01:26:24.685Z,984.26
2023-03-31T01:27:24.683Z,984.25
2023-03-31T01:28:24.702Z,984.21
2023-03-31T01:29:24.650Z,984.19
2023-03-31T01:30:24.654Z,984.18
2023-03-31T01:31:24.775Z,984.18
2023-03-31T01:32:24.676Z,984.21
2023-03-31T01:33:24.632Z,984.20
2023-03-31T01:34:24.611Z,984.19
2023-03-31T01:35:24.627Z,984.20
2023-03-31T01:36:24.592Z,984.18
2023-03-31T01:37:24.573Z,984.15
2023-03-31T01:38:24.603Z,984.13
2023-03-31T01:39:24.550Z,984.11
2023-03-31T01:40:24.557Z,984.08
2023-03-31T01:41:24.527Z,984.10
2023-03-31T01:42:24.526Z,984.09
2023-03-31T01:43:25.017Z,984.09
2023-03-31T01:44:24.503Z,984.09
2023-03-31T01:45:24.486Z,984.08
2023-03-31T01:46:24.496Z,984.06
2023-03-31T01:47:24.497Z,984.05
2023-03-31T01:48:24.477Z,984.04
2023-03-31T01:49:24.441Z,984.02
2023-03-31T01:50:24.438Z,983.99
2023-03-31T01:51:24.425Z,983.97
2023-03-31T01:52:24.463Z,983.96
2023-03-31T01:53:24.425Z,983.95
2023-03-31T01:54:24.408Z,983.91
2023-03-31T01:55:24.429Z,983.89
2023-03-31T01:56:24.378Z,983.87
2023-03-31T01:57:24.565Z,983.86
2023-03-31T01:58:24.365Z,983.81
2023-03-31T01:59:24.336Z,983.76
2023-03-31T02:00:24.337Z,983.73
2023-03-31T02:01:24.393Z,983.69
2023-03-31T02:02:24.395Z,983.69
2023-03-31T02:03:24.438Z,983.67
2023-03-31T02:04:24.308Z,983.66
2023-03-31T02:05:24.273Z,983.65
2023-03-31T02:06:24.275Z,983.64
2023-03-31T02:07:24.262Z,983.60
2023-03-31T02:08:24.273Z,983.56
2023-03-31T02:09:24.233Z,983.57
2023-03-31T02:10:24.234Z,983.55
2023-03-31T02:11:24.220Z,983.53
2023-03-31T02:12:24.209Z,983.52
2023-03-31T02:13:24.225Z,983.51
2023-03-31T02:14:24.199Z,983.49
2023-03-31T02:15:24.189Z,983.52
2023-03-31T02:16:24.231Z,983.51
2023-03-31T02:17:24.163Z,983.49
2023-03-31T02:18:24.162Z,983.47
2023-03-31T02:19:24.178Z,983.44
2023-03-31T02:20:24.127Z,983.43
2023-03-31T02:21:24.116Z,983.40
2023-03-31T02:22:24.107Z,983.39
2023-03-31T02:23:24.088Z,983.35
2023-03-31T02:24:24.120Z,983.36
2023-03-31T02:25:24.079Z,983.36
2023-03-31T02:26:24.074Z,983.35
2023-03-31T02:27:24.046Z,983.35
2023-03-31T02:28:24.075Z,983.34
2023-03-31T02:29:24.047Z,983.35
2023-03-31T02:30:24.024Z,983.35
2023-03-31T02:31:24.042Z,983.34
2023-03-31T02:32:24.024Z,983.33
2023-03-31T02:33:23.984Z,983.33
2023-03-31T02:34:24.009Z,983.32
2023-03-31T02:35:23.990Z,983.29
2023-03-31T02:36:23.956Z,983.29
2023-03-31T02:37:23.958Z,983.25
2023-03-31T02:38:23.939Z,983.26
2023-03-31T02:39:23.951Z,983.23
2023-03-31T02:40:23.923Z,983.23
2023-03-31T02:41:23.912Z,983.22
2023-03-31T02:42:23.903Z,983.23
2023-03-31T02:43:23.891Z,983.22
2023-03-31T02:44:23.946Z,983.18
2023-03-31T02:45:23.877Z,983.16
2023-03-31T02:46:23.989Z,983.15
2023-03-31T02:47:23.861Z,983.15
2023-03-31T02:48:23.836Z,983.11
2023-03-31T02:49:24.372Z,983.12
2023-03-31T02:50:23.816Z,983.08
2023-03-31T02:51:23.829Z,983.04
2023-03-31T02:52:23.802Z,983.03
2023-03-31T02:53:23.776Z,983.04
2023-03-31T02:54:23.806Z,983.01
2023-03-31T02:55:23.763Z,982.99
2023-03-31T02:56:23.758Z,982.96
2023-03-31T02:57:23.755Z,982.94
2023-03-31T02:58:23.734Z,982.93
2023-03-31T02:59:23.732Z,982.88
2023-03-31T03:00:23.747Z,982.89
2023-03-31T03:01:23.723Z,982.88
2023-03-31T03:02:23.745Z,982.88
2023-03-31T03:03:23.780Z,982.87
2023-03-31T03:04:23.667Z,982.86
2023-03-31T03:05:23.692Z,982.87
2023-03-31T03:06:23.671Z,982.87
2023-03-31T03:07:23.633Z,982.81
2023-03-31T03:08:23.632Z,982.80
2023-03-31T03:09:23.635Z,982.79
2023-03-31T03:10:23.610Z,982.77
2023-03-31T03:11:23.591Z,982.74
2023-03-31T03:12:23.597Z,982.72
2023-03-31T03:13:23.579Z,982.70
2023-03-31T03:14:23.597Z,982.67
2023-03-31T03:15:23.558Z,982.65
2023-03-31T03:16:23.614Z,982.65
2023-03-31T03:17:23.659Z,982.68
2023-03-31T03:18:23.528Z,982.63
2023-03-31T03:19:23.536Z,982.58
2023-03-31T03:20:23.503Z,982.53
2023-03-31T03:21:23.494Z,982.52
2023-03-31T03:22:23.501Z,982.55
2023-03-31T03:23:23.467Z,982.55
2023-03-31T03:24:23.518Z,982.57
2023-03-31T03:25:23.516Z,982.57
2023-03-31T03:26:23.506Z,982.54
2023-03-31T03:27:23.429Z,982.50
2023-03-31T03:28:23.424Z,982.40
2023-03-31T03:29:23.437Z,982.32
2023-03-31T03:30:23.398Z,982.31
2023-03-31T03:31:23.443Z,982.32
2023-03-31T03:32:23.390Z,982.40
2023-03-31T03:33:23.365Z,982.43
2023-03-31T03:34:23.376Z,982.40
2023-03-31T03:35:23.384Z,982.36
2023-03-31T03:36:23.386Z,982.35
2023-03-31T03:37:23.346Z,982.32
2023-03-31T03:38:23.318Z,982.30
2023-03-31T03:39:23.318Z,982.29
2023-03-31T03:40:23.301Z,982.31
2023-03-31T03:41:23.286Z,982.28
2023-03-31T03:42:23.276Z,982.25
2023-03-31T03:43:23.270Z,982.20
2023-03-31T03:44:23.271Z,982.16
2023-03-31T03:45:23.261Z,982.10
2023-03-31T03:46:23.339Z,982.11
2023-03-31T03:47:23.281Z,982.06
2023-03-31T03:48:23.224Z,982.03
2023-03-31T03:49:23.236Z,982.02
2023-03-31T03:50:23.198Z,981.99
2023-03-31T03:51:23.188Z,981.96
2023-03-31T03:52:23.175Z,981.90
2023-03-31T03:53:23.167Z,981.89
2023-03-31T03:54:23.199Z,981.90
2023-03-31T03:55:23.149Z,981.90
2023-03-31T03:56:23.147Z,981.90
2023-03-31T03:57:23.203Z,981.85
2023-03-31T03:58:23.111Z,981.80
2023-03-31T03:59:23.717Z,981.73
2023-03-31T04:00:23.096Z,981.72
2023-03-31T04:01:23.086Z,981.72
2023-03-31T04:02:24.500Z,981.68
2023-03-31T04:03:23.112Z,981.66
2023-03-31T04:04:23.038Z,981.59
2023-03-31T04:05:23.089Z,981.57
2023-03-31T04:06:23.056Z,981.55
2023-03-31T04:07:23.009Z,981.53
2023-03-31T04:08:23.011Z,981.49
2023-03-31T04:09:23.004Z,981.44
2023-03-31T04:10:22.975Z,981.43
2023-03-31T04:11:22.965Z,981.40
2023-03-31T04:12:22.955Z,981.38
2023-03-31T04:13:22.960Z,981.34
2023-03-31T04:14:22.946Z,981.31
2023-03-31T04:15:22.923Z,981.33
2023-03-31T04:16:22.939Z,981.30
2023-03-31T04:17:22.996Z,981.28
2023-03-31T04:18:23.069Z,981.25
2023-03-31T04:19:22.911Z,981.21
2023-03-31T04:20:22.868Z,981.14
2023-03-31T04:21:23.243Z,981.11
2023-03-31T04:22:22.853Z,981.08
2023-03-31T04:23:22.830Z,981.04
2023-03-31T04:24:22.865Z,981.02
2023-03-31T04:25:22.882Z,980.98
2023-03-31T04:26:22.810Z,980.96
2023-03-31T04:27:22.787Z,981.00
2023-03-31T04:28:22.740Z,981.01
2023-03-31T04:29:22.902Z,980.98
2023-03-31T04:30:23.006Z,980.95
2023-03-31T04:31:22.789Z,980.94
2023-03-31T04:32:22.786Z,980.94
2023-03-31T04:33:22.681Z,980.96
2023-03-31T04:34:22.686Z,980.95
2023-03-31T04:35:22.737Z,980.95
2023-03-31T04:36:22.719Z,980.94
2023-03-31T04:37:22.665Z,980.93
2023-03-31T04:38:22.625Z,980.91
2023-03-31T04:39:22.696Z,980.88
2023-03-31T04:40:22.619Z,980.87
2023-03-31T04:41:22.635Z,980.87
2023-03-31T04:42:22.684Z,980.84
2023-03-31T04:43:22.574Z,980.83
2023-03-31T04:44:22.585Z,980.84
2023-03-31T04:45:22.576Z,980.81
2023-03-31T04:46:22.656Z,980.83
2023-03-31T04:47:22.597Z,980.84
2023-03-31T04:48:22.555Z,980.82
2023-03-31T04:49:22.526Z,980.80
2023-03-31T04:50:22.513Z,980.78
2023-03-31T04:51:22.493Z,980.80
2023-03-31T04:52:22.584Z,980.83
2023-03-31T04:53:22.490Z,980.86
2023-03-31T04:54:22.495Z,980.87
2023-03-31T04:55:22.460Z,980.91
2023-03-31T04:56:22.441Z,980.94
2023-03-31T04:57:22.793Z,980.95
2023-03-31T04:58:22.427Z,980.94
2023-03-31T04:59:22.446Z,980.92
2023-03-31T05:00:22.415Z,980.89
2023-03-31T05:01:22.428Z,980.85
2023-03-31T05:02:24.913Z,980.78
2023-03-31T05:03:22.444Z,980.74
2023-03-31T05:04:22.373Z,980.69
2023-03-31T05:05:22.346Z,980.64
2023-03-31T05:06:22.340Z,980.58
2023-03-31T05:07:22.357Z,980.53
2023-03-31T05:08:22.321Z,980.51
2023-03-31T05:09:22.335Z,980.49
2023-03-31T05:10:22.349Z,980.45
2023-03-31T05:11:22.294Z,980.44
2023-03-31T05:12:22.302Z,980.43
2023-03-31T05:13:22.265Z,980.40
2023-03-31T05:14:22.265Z,980.39
2023-03-31T05:15:22.450Z,980.40
2023-03-31T05:16:22.284Z,980.42
2023-03-31T05:17:22.349Z,980.39
2023-03-31T05:18:22.262Z,980.38
2023-03-31T05:19:22.201Z,980.31
2023-03-31T05:20:22.284Z,980.24
2023-03-31T05:21:22.198Z,980.20
2023-03-31T05:22:22.182Z,980.16
2023-03-31T05:23:22.181Z,980.11
2023-03-31T05:24:22.152Z,980.11
2023-03-31T05:25:22.629Z,980.08
2023-03-31T05:26:22.134Z,980.08
2023-03-31T05:27:22.139Z,980.06
2023-03-31T05:28:22.111Z,980.08
2023-03-31T05:29:22.126Z,980.10
2023-03-31T05:30:22.122Z,980.14
2023-03-31T05:31:22.105Z,980.17
2023-03-31T05:32:22.096Z,980.22
2023-03-31T05:33:22.079Z,980.21
2023-03-31T05:34:22.084Z,980.26
2023-03-31T05:35:22.076Z,980.25
2023-03-31T05:36:22.060Z,980.25
2023-03-31T05:37:22.031Z,980.25
2023-03-31T05:38:22.010Z,980.18
2023-03-31T05:39:22.015Z,980.14
2023-03-31T05:40:22.003Z,980.13
2023-03-31T05:41:21.983Z,980.10
2023-03-31T05:42:21.961Z,980.10
2023-03-31T05:43:21.984Z,980.09
2023-03-31T05:44:21.949Z,980.11
2023-03-31T05:45:21.958Z,980.13
2023-03-31T05:46:21.999Z,980.16
2023-03-31T05:47:21.919Z,980.17
2023-03-31T05:48:21.931Z,980.13
2023-03-31T05:49:21.895Z,980.09
2023-03-31T05:50:21.895Z,980.08
2023-03-31T05:51:21.874Z,980.05
2023-03-31T05:52:21.865Z,980.02
2023-03-31T05:53:21.857Z,979.99
2023-03-31T05:54:21.837Z,979.92
2023-03-31T05:55:21.875Z,979.89
2023-03-31T05:56:21.819Z,979.85
2023-03-31T05:57:21.886Z,979.86
2023-03-31T05:58:21.792Z,979.90
2023-03-31T05:59:21.800Z,979.92
2023-03-31T06:00:21.822Z,979.91
2023-03-31T06:01:21.830Z,979.92
2023-03-31T06:02:21.847Z,979.86
2023-03-31T06:03:21.801Z,979.81
2023-03-31T06:04:21.824Z,979.79
2023-03-31T06:05:21.760Z,979.76
2023-03-31T06:06:21.713Z,979.72
2023-03-31T06:07:21.707Z,979.71
2023-03-31T06:08:21.692Z,979.72
2023-03-31T06:09:21.685Z,979.69
2023-03-31T06:10:21.700Z,979.63
2023-03-31T06:11:21.675Z,979.60
2023-03-31T06:12:21.650Z,979.59
2023-03-31T06:13:21.726Z,979.59
2023-03-31T06:14:21.626Z,979.58
2023-03-31T06:15:21.712Z,979.55
2023-03-31T06:16:21.635Z,979.55
2023-03-31T06:17:21.659Z,979.58
2023-03-31T06:18:21.638Z,979.56
2023-03-31T06:19:21.610Z,979.55
2023-03-31T06:20:28.193Z,979.53
2023-03-31T06:21:21.619Z,979.51
2023-03-31T06:22:21.587Z,979.47
2023-03-31T06:23:21.549Z,979.47
2023-03-31T06:24:21.576Z,979.47
2023-03-31T06:25:21.762Z,979.45
2023-03-31T06:26:21.504Z,979.41
2023-03-31T06:27:21.497Z,979.43
2023-03-31T06:28:21.482Z,979.39
2023-03-31T06:29:21.487Z,979.40
2023-03-31T06:30:21.503Z,979.37
2023-03-31T06:31:21.559Z,979.34
2023-03-31T06:32:21.442Z,979.31
2023-03-31T06:33:21.474Z,979.32
2023-03-31T06:34:21.733Z,979.34
2023-03-31T06:35:21.478Z,979.30
2023-03-31T06:36:21.406Z,979.30
2023-03-31T06:37:21.406Z,979.36
2023-03-31T06:38:21.411Z,979.32
2023-03-31T06:39:21.651Z,979.31
2023-03-31T06:40:21.363Z,979.32
2023-03-31T06:41:21.352Z,979.33
2023-03-31T06:42:21.370Z,979.33
2023-03-31T06:43:21.353Z,979.34
2023-03-31T06:44:21.312Z,979.24
2023-03-31T06:45:21.385Z,979.24
2023-03-31T06:46:21.328Z,979.24
2023-03-31T06:47:21.355Z,979.21
2023-03-31T06:48:21.270Z,979.21
2023-03-31T06:49:21.298Z,979.19
2023-03-31T06:50:21.267Z,979.20
2023-03-31T06:51:21.246Z,979.24
2023-03-31T06:52:21.265Z,979.22
2023-03-31T06:53:21.232Z,979.21
2023-03-31T06:54:21.206Z,979.21
2023-03-31T06:55:21.232Z,979.19
2023-03-31T06:56:21.249Z,979.17
2023-03-31T06:57:21.217Z,979.15
2023-03-31T06:58:21.177Z,979.16
2023-03-31T06:59:21.209Z,979.11
2023-03-31T07:00:23.138Z,979.12
2023-03-31T07:01:21.211Z,979.09
2023-03-31T07:02:21.149Z,979.15
2023-03-31T07:03:21.228Z,979.15
2023-03-31T07:04:21.115Z,979.15
2023-03-31T07:05:21.137Z,979.14
2023-03-31T07:06:21.239Z,979.14
2023-03-31T07:07:21.076Z,979.16
2023-03-31T07:08:21.065Z,979.09
2023-03-31T07:09:21.052Z,979.05
2023-03-31T07:10:21.066Z,979.03
2023-03-31T07:11:21.332Z,979.01
2023-03-31T07:12:21.025Z,979.01
2023-03-31T07:13:21.031Z,979.03
2023-03-31T07:14:20.997Z,979.03
2023-03-31T07:15:21.052Z,979.04
2023-03-31T07:16:21.022Z,979.04
2023-03-31T07:17:20.981Z,979.01
2023-03-31T07:18:20.958Z,978.95
2023-03-31T07:19:20.971Z,978.96
2023-03-31T07:20:21.170Z,978.95
2023-03-31T07:21:20.931Z,978.98
2023-03-31T07:22:20.912Z,978.92
2023-03-31T07:23:20.940Z,978.92
2023-03-31T07:24:20.931Z,978.92
2023-03-31T07:25:20.891Z,978.85
2023-03-31T07:26:20.884Z,978.87
2023-03-31T07:27:20.969Z,978.85
2023-03-31T07:28:20.881Z,978.84
2023-03-31T07:29:20.888Z,978.84
2023-03-31T07:30:20.860Z,978.86
2023-03-31T07:31:20.896Z,978.85
2023-03-31T07:32:20.844Z,978.83
2023-03-31T07:33:20.806Z,978.80
2023-03-31T07:34:20.835Z,978.80
2023-03-31T07:35:20.827Z,978.79
2023-03-31T07:36:21.294Z,978.75
2023-03-31T07:37:20.783Z,978.77
2023-03-31T07:38:20.747Z,978.73
2023-03-31T07:39:20.740Z,978.73
2023-03-31T07:40:20.771Z,978.72
2023-03-31T07:41:20.737Z,978.67
2023-03-31T07:42:20.721Z,978.64
2023-03-31T07:43:20.707Z,978.61
2023-03-31T07:44:20.741Z,978.59
2023-03-31T07:45:20.730Z,978.58
2023-03-31T07:46:20.730Z,978.62
2023-03-31T07:47:20.743Z,978.55
2023-03-31T07:48:20.646Z,978.57
2023-03-31T07:49:20.644Z,978.53
2023-03-31T07:50:20.626Z,978.52
2023-03-31T07:51:20.796Z,978.54
2023-03-31T07:52:20.620Z,978.56
2023-03-31T07:53:20.607Z,978.53
2023-03-31T07:54:20.610Z,978.49
2023-03-31T07:55:20.680Z,978.47
2023-03-31T07:56:20.595Z,978.47
2023-03-31T07:57:20.783Z,978.45
2023-03-31T07:58:20.571Z,978.44
2023-03-31T07:59:20.578Z,978.38
2023-03-31T08:00:20.556Z,978.42
2023-03-31T08:01:20.539Z,978.45
2023-03-31T08:02:20.582Z,978.42
2023-03-31T08:03:20.546Z,978.42
2023-03-31T08:04:20.534Z,978.38
2023-03-31T08:05:20.471Z,978.37
2023-03-31T08:06:20.482Z,978.35
2023-03-31T08:07:20.509Z,978.35
2023-03-31T08:08:20.433Z,978.36
2023-03-31T08:09:20.435Z,978.33
2023-03-31T08:10:20.411Z,978.31
2023-03-31T08:11:20.432Z,978.29
2023-03-31T08:12:20.392Z,978.34
2023-03-31T08:13:20.399Z,978.28
2023-03-31T08:14:30.284Z,978.29
2023-03-31T08:15:20.371Z,978.27
2023-03-31T08:16:20.455Z,978.22
2023-03-31T08:17:20.361Z,978.21
2023-03-31T08:18:20.328Z,978.22
2023-03-31T08:19:20.326Z,978.18
2023-03-31T08:20:20.307Z,978.19
2023-03-31T08:21:23.009Z,978.14
2023-03-31T08:22:20.289Z,978.11
2023-03-31T08:23:20.289Z,978.09
2023-03-31T08:24:20.272Z,978.05
2023-03-31T08:25:20.324Z,978.05
2023-03-31T08:26:20.269Z,978.03
2023-03-31T08:27:20.248Z,978.06
2023-03-31T08:28:20.229Z,978.04
2023-03-31T08:29:20.218Z,977.96
2023-03-31T08:30:20.207Z,978.02
2023-03-31T08:31:20.229Z,977.98
2023-03-31T08:32:20.191Z,977.92
2023-03-31T08:33:20.298Z,977.92
2023-03-31T08:34:20.158Z,977.91
2023-03-31T08:35:20.215Z,977.88
2023-03-31T08:36:20.207Z,977.92
2023-03-31T08:37:20.150Z,977.87
2023-03-31T08:38:20.122Z,977.82
2023-03-31T08:39:20.118Z,977.85
2023-03-31T08:40:20.109Z,977.81
2023-03-31T08:41:20.123Z,977.75
2023-03-31T08:42:20.089Z,977.72
2023-03-31T08:43:20.081Z,977.70
2023-03-31T08:44:20.065Z,977.69
2023-03-31T08:45:20.064Z,977.70
2023-03-31T08:46:20.153Z,977.69
2023-03-31T08:47:20.033Z,977.69
2023-03-31T08:48:20.062Z,977.67
2023-03-31T08:49:20.037Z,977.67
2023-03-31T08:50:20.044Z,977.72
2023-03-31T08:51:20.004Z,977.70
2023-03-31T08:52:19.993Z,977.71
2023-03-31T08:53:19.977Z,977.73
2023-03-31T08:54:19.955Z,977.70
2023-03-31T08:55:19.963Z,977.68
2023-03-31T08:56:19.946Z,977.60
2023-03-31T08:57:20.063Z,977.66
2023-03-31T08:58:19.916Z,977.68
2023-03-31T08:59:19.914Z,977.69
2023-03-31T09:00:20.506Z,977.72
2023-03-31T09:01:19.937Z,977.70
2023-03-31T09:02:19.927Z,977.65
2023-03-31T09:03:19.949Z,977.68
2023-03-31T09:04:20.016Z,977.65
2023-03-31T09:05:19.858Z,977.63
2023-03-31T09:06:19.843Z,977.71
2023-03-31T09:07:19.821Z,977.70
2023-03-31T09:08:19.813Z,977.66
2023-03-31T09:09:19.813Z,977.67
2023-03-31T09:10:19.800Z,977.64
2023-03-31T09:11:19.797Z,977.65
2023-03-31T09:12:19.766Z,977.63
2023-03-31T09:13:19.773Z,977.61
2023-03-31T09:14:19.753Z,977.54
2023-03-31T09:15:19.741Z,977.50
2023-03-31T09:16:20.388Z,977.45
2023-03-31T09:17:19.728Z,977.41
2023-03-31T09:18:19.715Z,977.39
2023-03-31T09:19:19.695Z,977.40
2023-03-31T09:20:19.683Z,977.38
2023-03-31T09:21:19.695Z,977.35
2023-03-31T09:22:19.671Z,977.35
2023-03-31T09:23:19.666Z,977.34
2023-03-31T09:24:19.658Z,977.35
2023-03-31T09:25:19.645Z,977.32
2023-03-31T09:26:19.644Z,977.29
2023-03-31T09:27:19.612Z,977.32
2023-03-31T09:28:19.646Z,977.27
2023-03-31T09:29:19.621Z,977.27
2023-03-31T09:30:19.579Z,977.25
2023-03-31T09:31:19.647Z,977.24
2023-03-31T09:32:19.576Z,977.24
2023-03-31T09:33:19.558Z,977.21
2023-03-31T09:34:19.536Z,977.21
2023-03-31T09:35:19.536Z,977.19
2023-03-31T09:36:19.561Z,977.17
2023-03-31T09:37:19.531Z,977.16
2023-03-31T09:38:19.517Z,977.18
2023-03-31T09:39:19.489Z,977.20
2023-03-31T09:40:19.582Z,977.19
2023-03-31T09:41:19.476Z,977.20
2023-03-31T09:42:19.474Z,977.19
2023-03-31T09:43:19.449Z,977.21
2023-03-31T09:44:19.466Z,977.22
2023-03-31T09:45:19.421Z,977.21
2023-03-31T09:46:19.617Z,977.20
2023-03-31T09:47:19.409Z,977.20
2023-03-31T09:48:19.414Z,977.19
2023-03-31T09:49:19.388Z,977.18
2023-03-31T09:50:19.384Z,977.17
2023-03-31T09:51:19.389Z,977.18
2023-03-31T09:52:19.371Z,977.16
2023-03-31T09:53:19.358Z,977.16
2023-03-31T09:54:19.348Z,977.16
2023-03-31T09:55:32.056Z,977.14
2023-03-31T09:56:19.368Z,977.14
2023-03-31T09:57:19.317Z,977.11
2023-03-31T09:58:19.292Z,977.10
2023-03-31T09:59:19.307Z,977.09
2023-03-31T10:00:19.269Z,977.08
2023-03-31T10:01:19.538Z,977.03
2023-03-31T10:02:19.609Z,977.02
2023-03-31T10:03:19.242Z,976.97
2023-03-31T10:04:19.320Z,976.94
2023-03-31T10:05:19.274Z,976.91
2023-03-31T10:06:19.275Z,976.89
2023-03-31T10:07:19.782Z,976.87
2023-03-31T10:08:19.195Z,976.89
2023-03-31T10:09:19.173Z,976.87
2023-03-31T10:10:19.194Z,976.86
2023-03-31T10:11:19.149Z,976.84
2023-03-31T10:12:19.181Z,976.82
2023-03-31T10:13:19.141Z,976.80
2023-03-31T10:14:19.139Z,976.79
2023-03-31T10:15:19.137Z,976.78
2023-03-31T10:16:19.183Z,976.77
2023-03-31T10:17:19.110Z,976.79
2023-03-31T10:18:19.196Z,976.74
2023-03-31T10:19:19.075Z,976.73
2023-03-31T10:20:19.112Z,976.70
2023-03-31T10:21:19.050Z,976.70
2023-03-31T10:22:19.063Z,976.73
2023-03-31T10:23:19.034Z,976.72
2023-03-31T10:24:19.083Z,976.71
2023-03-31T10:25:19.023Z,976.69
2023-03-31T10:26:19.011Z,976.69
2023-03-31T10:27:19.979Z,976.63
2023-03-31T10:28:19.013Z,976.61
2023-03-31T10:29:19.006Z,976.60
2023-03-31T10:30:19.153Z,976.56
2023-03-31T10:31:18.991Z,976.52
2023-03-31T10:32:18.969Z,976.52
2023-03-31T10:33:23.260Z,976.52
2023-03-31T10:34:18.963Z,976.51
2023-03-31T10:35:18.906Z,976.49
2023-03-31T10:36:21.872Z,976.48
2023-03-31T10:37:18.938Z,976.46
2023-03-31T10:38:19.047Z,976.44
2023-03-31T10:39:18.879Z,976.45
2023-03-31T10:40:18.902Z,976.44
2023-03-31T10:41:18.888Z,976.44
2023-03-31T10:42:20.570Z,976.43
2023-03-31T10:43:18.823Z,976.39
2023-03-31T10:44:18.819Z,976.37
2023-03-31T10:45:29.709Z,976.36
2023-03-31T10:46:18.833Z,976.35
2023-03-31T10:47:18.849Z,976.35
2023-03-31T10:48:18.772Z,976.34
2023-03-31T10:49:18.764Z,976.34
2023-03-31T10:50:18.758Z,976.32
2023-03-31T10:51:18.757Z,976.31
2023-03-31T10:52:18.737Z,976.27
2023-03-31T10:53:18.715Z,976.25
2023-03-31T10:54:18.707Z,976.24
2023-03-31T10:55:18.704Z,976.24
2023-03-31T10:56:18.687Z,976.23
2023-03-31T10:57:19.080Z,976.22
2023-03-31T10:58:18.754Z,976.21
2023-03-31T10:59:18.655Z,976.22
2023-03-31T11:00:18.666Z,976.21
2023-03-31T11:01:18.659Z,976.21
2023-03-31T11:02:18.640Z,976.18
2023-03-31T11:03:18.765Z,976.14
2023-03-31T11:04:18.612Z,976.11
2023-03-31T11:05:18.616Z,976.09
2023-03-31T11:06:18.585Z,976.06
2023-03-31T11:07:18.928Z,976.05
2023-03-31T11:08:19.952Z,976.02
2023-03-31T11:09:18.562Z,976.01
2023-03-31T11:10:18.543Z,976.03
2023-03-31T11:11:18.533Z,976.00
2023-03-31T11:12:18.631Z,975.98
2023-03-31T11:13:18.509Z,975.96
2023-03-31T11:14:18.503Z,975.95
2023-03-31T11:15:18.778Z,975.93
2023-03-31T11:16:18.873Z,975.88
2023-03-31T11:17:18.543Z,975.88
2023-03-31T11:18:18.459Z,975.88
2023-03-31T11:19:18.483Z,975.88
2023-03-31T11:20:18.449Z,975.82
2023-03-31T11:21:18.419Z,975.81
2023-03-31T11:22:18.455Z,975.77
2023-03-31T11:23:18.431Z,975.74
2023-03-31T11:24:18.404Z,975.74
2023-03-31T11:25:18.384Z,975.72
2023-03-31T11:26:18.420Z,975.70
2023-03-31T11:27:18.449Z,975.70
2023-03-31T11:28:18.381Z,975.66
2023-03-31T11:29:18.337Z,975.66
2023-03-31T11:30:18.420Z,975.66
2023-03-31T11:31:18.368Z,975.67
2023-03-31T11:32:18.308Z,975.67
2023-03-31T11:33:18.342Z,975.66
2023-03-31T11:34:18.316Z,975.64
2023-03-31T11:35:18.280Z,975.64
2023-03-31T11:36:18.298Z,975.62
2023-03-31T11:37:18.306Z,975.62
2023-03-31T11:38:18.248Z,975.57
2023-03-31T11:39:18.251Z,975.60
2023-03-31T11:40:18.233Z,975.62
2023-03-31T11:41:18.213Z,975.62
2023-03-31T11:42:18.342Z,975.64
2023-03-31T11:43:18.228Z,975.64
2023-03-31T11:44:18.196Z,975.58
2023-03-31T11:45:18.221Z,975.58
2023-03-31T11:46:18.179Z,975.54
2023-03-31T11:47:18.178Z,975.56
2023-03-31T11:48:18.179Z,975.56
2023-03-31T11:49:18.129Z,975.55
2023-03-31T11:50:18.124Z,975.53
2023-03-31T11:51:18.133Z,975.50
2023-03-31T11:52:18.124Z,975.47
2023-03-31T11:53:18.132Z,975.48
2023-03-31T11:54:18.085Z,975.49
2023-03-31T11:55:18.078Z,975.50
2023-03-31T11:56:18.056Z,975.49
2023-03-31T11:57:18.170Z,975.52
2023-03-31T11:58:18.040Z,975.51
2023-03-31T11:59:18.043Z,975.52
2023-03-31T12:00:18.042Z,975.48
2023-03-31T12:01:18.016Z,975.47
2023-03-31T12:02:18.286Z,975.46
2023-03-31T12:03:18.095Z,975.45
2023-03-31T12:04:17.987Z,975.48
2023-03-31T12:05:17.976Z,975.45
2023-03-31T12:06:18.020Z,975.50
2023-03-31T12:07:18.036Z,975.48
2023-03-31T12:08:17.934Z,975.49
2023-03-31T12:09:17.923Z,975.47
2023-03-31T12:10:17.915Z,975.42
2023-03-31T12:11:17.909Z,975.42
2023-03-31T12:12:17.954Z,975.39
2023-03-31T12:13:17.872Z,975.37
2023-03-31T12:14:17.872Z,975.36
2023-03-31T12:15:17.858Z,975.31
2023-03-31T12:16:17.886Z,975.30
2023-03-31T12:17:17.834Z,975.29
2023-03-31T12:18:17.972Z,975.27
2023-03-31T12:19:17.811Z,975.25
2023-03-31T12:20:17.804Z,975.24
2023-03-31T12:21:17.792Z,975.21
2023-03-31T12:22:17.782Z,975.22
2023-03-31T12:23:18.128Z,975.21
2023-03-31T12:24:17.759Z,975.21
2023-03-31T12:25:17.756Z,975.22
2023-03-31T12:26:17.740Z,975.20
2023-03-31T12:27:17.726Z,975.20
2023-03-31T12:28:18.250Z,975.15